Time;durP1;ratioP1;P1;durP2;ratioP2;P2;SDS_P1;SDS_P2;PMS_P1;PMS_P2;Temp;Humidity;BMP_temperature;BMP_pressure;BME280_temperature;BME280_humidity;BME280_pressure;Samples;Min_cycle;Max_cycle;Signal;HPM_P1;HPM_P2
2022/03/04 00:02:03;;;;;;;22.30;11.38;;;;;;;7.95;70.78;100151.34;6252222;22;20023;-84
2022/03/04 00:04:30;;;;;;;18.60;11.20;;;;;;;7.72;72.05;100137.78;6278377;22;20015;-84
2022/03/04 00:06:55;;;;;;;21.88;11.73;;;;;;;7.71;72.34;100132.69;6277181;22;20007;-83
2022/03/04 00:09:21;;;;;;;18.85;10.43;;;;;;;7.90;71.50;100132.50;6276612;22;20007;-84
2022/03/04 00:11:48;;;;;;;20.17;11.35;;;;;;;7.92;71.37;100146.34;6276964;22;20137;-84
2022/03/04 00:14:14;;;;;;;17.33;10.70;;;;;;;8.04;70.88;100145.13;6276871;22;20008;-84
2022/03/04 00:16:40;;;;;;;17.10;10.73;;;;;;;7.82;71.71;100143.00;6276086;22;20065;-83
2022/03/04 00:19:06;;;;;;;18.40;10.80;;;;;;;7.74;72.46;100158.75;6249375;22;20387;-83
2022/03/04 00:21:37;;;;;;;21.80;12.07;;;;;;;7.67;71.29;100176.16;6277419;22;20042;-85
2022/03/04 00:24:05;;;;;;;18.92;11.07;;;;;;;7.22;73.37;100170.97;6277877;22;20015;-86
2022/03/04 00:26:31;;;;;;;18.67;10.82;;;;;;;6.98;75.27;100171.53;6278541;22;20327;-85
2022/03/04 00:28:57;;;;;;;18.73;10.38;;;;;;;6.97;75.73;100172.50;6278700;22;20624;-83
2022/03/04 00:31:23;;;;;;;16.88;10.43;;;;;;;7.02;76.09;100182.63;6277498;22;20292;-83
2022/03/04 00:33:49;;;;;;;21.48;11.43;;;;;;;6.99;76.13;100177.66;6279002;22;20118;-85
2022/03/04 00:36:15;;;;;;;17.05;11.10;;;;;;;7.14;75.74;100176.16;6280701;22;20003;-82
2022/03/04 00:38:48;;;;;;;18.77;10.65;;;;;;;7.28;75.23;100188.81;6279758;22;20004;-84
2022/03/04 00:41:18;;;;;;;;;;;;;;;7.38;75.08;100184.31;6250888;22;20064;-84
2022/03/04 00:43:44;;;;;;;19.27;10.38;;;;;;;7.46;74.03;100171.19;6278181;22;19915;-84
2022/03/04 00:46:11;;;;;;;20.02;11.10;;;;;;;7.53;73.21;100179.34;6278481;22;20342;-82
2022/03/04 00:48:38;;;;;;;22.33;11.27;;;;;;;7.73;71.96;100172.91;6278903;22;20022;-83
2022/03/04 00:51:04;;;;;;;17.15;9.90;;;;;;;7.72;71.96;100182.63;6251801;22;20016;-83
2022/03/04 00:53:30;;;;;;;17.95;10.57;;;;;;;7.77;71.38;100180.38;6278495;22;20065;-84
2022/03/04 00:55:56;;;;;;;18.35;11.20;;;;;;;7.79;71.23;100182.84;6277074;22;20000;-84
2022/03/04 00:58:22;;;;;;;17.75;11.00;;;;;;;7.68;72.21;100186.59;6279556;22;20018;-85
2022/03/04 01:00:48;;;;;;;26.00;14.18;;;;;;;7.29;74.66;100185.22;6280176;22;20012;-86
2022/03/04 01:03:14;;;;;;;22.35;13.18;;;;;;;7.27;74.98;100181.88;6278984;22;20068;-83
2022/03/04 01:05:39;;;;;;;26.42;13.40;;;;;;;7.01;76.98;100176.50;6280200;22;20015;-80
2022/03/04 01:08:05;;;;;;;21.63;13.27;;;;;;;6.88;77.66;100165.50;6281246;22;20018;-83
2022/03/04 01:10:31;;;;;;;18.92;11.65;;;;;;;7.20;76.30;100180.81;6280770;22;20019;-83
2022/03/04 01:12:56;;;;;;;21.60;11.98;;;;;;;7.32;75.47;100179.66;6278821;22;20033;-80
2022/03/04 01:15:23;;;;;;;17.95;11.15;;;;;;;6.94;77.57;100183.34;6281619;22;20011;-83
2022/03/04 01:17:48;;;;;;;20.40;11.48;;;;;;;6.65;79.88;100180.88;6281598;22;20457;-84
2022/03/04 01:20:14;;;;;;;23.73;11.18;;;;;;;6.54;81.63;100191.56;6280595;22;20018;-81
2022/03/04 01:22:41;;;;;;;19.67;11.15;;;;;;;6.54;81.46;100181.03;6280756;22;20039;-85
2022/03/04 01:25:11;;;;;;;18.33;10.23;;;;;;;6.61;81.11;100187.38;6255295;22;20514;-80
2022/03/04 01:27:37;;;;;;;18.48;10.95;;;;;;;6.57;81.37;100183.38;6247394;22;20020;-83
2022/03/04 01:30:08;;;;;;;17.02;10.48;;;;;;;6.65;81.65;100177.41;6281197;22;20064;-82
2022/03/04 01:32:34;;;;;;;21.65;11.57;;;;;;;6.81;79.84;100182.84;6285272;22;20008;-83
2022/03/04 01:35:05;;;;;;;22.15;11.48;;;;;;;7.01;78.59;100179.16;6254765;22;20320;-82
2022/03/04 01:37:31;;;;;;;21.45;10.93;;;;;;;7.09;78.08;100178.41;6281943;22;20436;-84
2022/03/04 01:39:59;;;;;;;18.08;11.23;;;;;;;7.30;77.31;100178.94;6284293;22;20071;-84
2022/03/04 01:42:24;;;;;;;20.35;10.98;;;;;;;7.31;76.58;100183.25;6282290;22;20011;-81
2022/03/04 01:44:50;;;;;;;17.48;10.73;;;;;;;7.29;76.78;100186.03;6281578;22;20019;-82
2022/03/04 01:47:15;;;;;;;15.25;10.23;;;;;;;7.28;77.22;100188.81;6281292;22;20087;-84
2022/03/04 01:49:41;;;;;;;16.50;10.25;;;;;;;7.51;76.32;100187.41;6278980;22;20096;-82
2022/03/04 01:52:10;;;;;;;22.80;11.05;;;;;;;7.20;77.62;100186.09;6280587;22;20016;-82
2022/03/04 01:54:42;;;;;;;17.60;11.32;;;;;;;7.22;77.93;100184.16;6282116;22;20083;-84
2022/03/04 01:57:07;;;;;;;17.40;10.75;;;;;;;7.38;77.16;100192.22;6281794;22;20015;-83
2022/03/04 01:59:33;;;;;;;24.73;12.30;;;;;;;7.54;75.88;100189.75;6281202;22;20023;-83
2022/03/04 02:01:59;;;;;;;19.77;12.23;;;;;;;7.67;74.11;100199.91;6283922;22;20011;-83
2022/03/04 02:04:25;;;;;;;26.88;16.00;;;;;;;7.44;74.32;100194.25;6281710;22;20407;-83
2022/03/04 02:06:52;;;;;;;34.40;17.42;;;;;;;7.54;73.27;100189.75;6281914;22;20493;-84
2022/03/04 02:09:18;;;;;;;41.60;19.58;;;;;;;7.61;72.20;100190.81;6283530;22;20011;-84
2022/03/04 02:11:44;;;;;;;30.75;16.15;;;;;;;7.16;75.40;100206.66;6280756;22;20140;-85
2022/03/04 02:14:11;;;;;;;27.27;15.15;;;;;;;6.60;79.45;100204.16;6281475;22;20038;-84
2022/03/04 02:16:42;;;;;;;30.25;15.98;;;;;;;6.33;80.96;100212.00;6283667;22;20003;-83
2022/03/04 02:19:08;;;;;;;34.92;18.40;;;;;;;6.47;80.35;100201.00;6283083;22;20007;-83
2022/03/04 02:21:34;;;;;;;37.58;21.75;;;;;;;6.71;77.84;100196.06;6282183;22;20026;-83
2022/03/04 02:24:00;;;;;;;40.30;20.80;;;;;;;6.54;77.49;100188.09;6283177;22;20016;-83
2022/03/04 02:26:25;;;;;;;46.80;22.77;;;;;;;6.54;77.34;100196.84;6280224;22;20008;-83
2022/03/04 02:28:51;;;;;;;44.15;22.98;;;;;;;6.38;78.46;100199.25;6279984;22;20018;-83
2022/03/04 02:31:18;;;;;;;44.17;23.73;;;;;;;6.26;78.64;100200.41;6281404;22;20454;-82
2022/03/04 02:33:45;;;;;;;47.92;24.13;;;;;;;6.32;77.19;100194.56;6255756;22;20007;-84
2022/03/04 02:36:11;;;;;;;46.08;25.58;;;;;;;6.37;76.75;100204.63;6254202;22;20042;-84
2022/03/04 02:38:37;;;;;;;49.33;28.02;;;;;;;6.41;75.69;100204.22;6280936;22;20011;-83
2022/03/04 02:41:03;;;;;;;45.50;25.73;;;;;;;6.60;74.91;100204.16;6254474;22;20080;-82
2022/03/04 02:43:28;;;;;;;54.25;28.10;;;;;;;6.47;75.92;100206.28;6281005;22;20094;-83
2022/03/04 02:45:54;;;;;;;46.30;25.55;;;;;;;6.52;75.02;100195.31;6282111;22;20008;-84
2022/03/04 02:48:19;;;;;;;53.80;27.25;;;;;;;6.21;77.28;100202.59;6282002;22;20034;-83
2022/03/04 02:50:45;;;;;;;52.15;27.75;;;;;;;6.35;75.79;100209.22;6282545;22;20007;-84
2022/03/04 02:53:11;;;;;;;57.72;29.83;;;;;;;6.10;76.69;100198.34;6271225;22;20095;-82
2022/03/04 02:55:37;;;;;;;56.45;29.35;;;;;;;6.03;78.45;100199.88;6280866;22;20033;-82
2022/03/04 02:58:02;;;;;;;53.97;27.80;;;;;;;5.98;78.03;100209.16;6251575;22;20007;-81
2022/03/04 03:00:28;;;;;;;51.40;28.23;;;;;;;5.98;79.47;100217.03;6280494;22;20007;-83
2022/03/04 03:02:54;;;;;;;55.92;27.17;;;;;;;6.19;77.66;100213.28;6284475;22;20038;-84
2022/03/04 03:05:20;;;;;;;51.15;27.70;;;;;;;6.23;78.14;100212.00;6287763;22;20003;-85
2022/03/04 03:07:46;;;;;;;57.92;29.00;;;;;;;6.09;79.14;100214.28;6286754;22;20049;-82
2022/03/04 03:10:17;;;;;;;46.80;26.00;;;;;;;6.00;80.89;100205.41;6286278;22;20057;-82
2022/03/04 03:12:43;;;;;;;47.47;26.83;;;;;;;5.88;81.85;100216.22;6260601;22;20087;-85
2022/03/04 03:15:13;;;;;;;48.90;25.27;;;;;;;5.85;82.11;100217.31;6286627;22;19999;-82
2022/03/04 03:17:41;;;;;;;45.95;25.88;;;;;;;6.02;81.53;100223.69;6239428;22;20019;-83
2022/03/04 03:20:09;;;;;;;44.67;25.02;;;;;;;6.03;81.99;100228.00;6289439;22;20133;-83
2022/03/04 03:22:35;;;;;;;54.15;26.20;;;;;;;5.90;83.05;100216.94;6287086;22;20434;-82
2022/03/04 03:25:00;;;;;;;49.35;27.00;;;;;;;5.79;83.91;100217.88;6287357;22;20008;-83
2022/03/04 03:27:26;;;;;;;51.47;27.95;;;;;;;5.71;85.28;100218.56;6286618;22;20015;-82
2022/03/04 03:29:54;;;;;;;53.55;27.40;;;;;;;5.67;85.98;100211.91;6293391;22;20012;-83
2022/03/04 03:32:20;;;;;;;52.13;27.10;;;;;;;5.72;85.91;100206.25;6288379;22;20011;-81
2022/03/04 03:34:46;;;;;;;47.08;26.63;;;;;;;5.80;85.96;100221.34;6255674;22;20431;-84
2022/03/04 03:37:11;;;;;;;49.10;28.02;;;;;;;5.78;86.16;100218.00;6278244;22;20023;-83
2022/03/04 03:39:37;;;;;;;53.35;29.15;;;;;;;5.80;86.02;100222.13;6279964;22;20027;-84
2022/03/04 03:42:05;;;;;;;55.17;29.00;;;;;;;5.88;85.92;100234.63;6279948;22;20016;-84
2022/03/04 03:44:31;;;;;;;60.05;29.95;;;;;;;5.93;85.39;100235.06;6281695;22;20066;-83
2022/03/04 03:46:59;;;;;;;57.60;30.63;;;;;;;6.12;84.18;100237.66;6279343;22;20046;-82
2022/03/04 03:49:26;;;;;;;57.47;30.65;;;;;;;6.03;84.64;100231.44;6281880;22;20000;-84
2022/03/04 03:51:51;;;;;;;64.35;34.83;;;;;;;6.02;84.52;100234.22;6254853;22;20392;-83
2022/03/04 03:54:17;;;;;;;70.63;36.47;;;;;;;5.99;84.00;100234.50;6253008;22;20011;-84
2022/03/04 03:56:43;;;;;;;70.68;38.17;;;;;;;6.00;83.48;100221.19;6280701;22;20431;-82
2022/03/04 03:59:08;;;;;;;74.03;40.25;;;;;;;5.98;83.52;100238.09;6280713;22;20387;-83
2022/03/04 04:01:34;;;;;;;74.72;40.00;;;;;;;6.13;83.24;100241.97;6282160;22;20014;-84
2022/03/04 04:04:00;;;;;;;73.82;40.28;;;;;;;6.23;82.36;100234.91;6281846;22;20038;-85
2022/03/04 04:06:26;;;;;;;78.13;41.72;;;;;;;6.16;83.16;100236.41;6282391;22;20023;-83
2022/03/04 04:08:52;;;;;;;76.28;40.88;;;;;;;6.08;84.18;100239.75;6285093;22;20007;-82
2022/03/04 04:11:18;;;;;;;83.88;42.13;;;;;;;6.06;84.89;100235.59;6295974;22;20042;-82
2022/03/04 04:13:43;;;;;;;84.05;43.15;;;;;;;5.99;85.41;100223.97;6269133;22;20008;-83
2022/03/04 04:16:09;;;;;;;76.07;43.97;;;;;;;5.96;86.41;100233.00;6297909;22;20003;-81
2022/03/04 04:18:36;;;;;;;80.88;43.85;;;;;;;5.89;86.69;100233.66;6298756;22;20074;-81
2022/03/04 04:21:06;;;;;;;83.30;44.17;;;;;;;5.81;87.93;100231.69;6272310;22;20015;-82
2022/03/04 04:23:31;;;;;;;85.70;44.38;;;;;;;5.72;89.14;100228.13;6300828;22;20012;-79
2022/03/04 04:25:57;;;;;;;83.10;44.38;;;;;;;5.74;88.80;100231.41;6283258;22;20073;-83
2022/03/04 04:28:25;;;;;;;81.70;42.28;;;;;;;5.77;88.78;100232.13;6283694;22;20450;-86
2022/03/04 04:30:51;;;;;;;83.30;42.05;;;;;;;5.73;88.49;100218.44;6282835;22;20339;-84
2022/03/04 04:33:17;;;;;;;84.63;43.65;;;;;;;5.67;88.32;100219.78;6286930;22;20008;-82
2022/03/04 04:35:43;;;;;;;76.57;41.53;;;;;;;5.64;89.21;100219.22;6282211;22;20004;-83
2022/03/04 04:38:08;;;;;;;77.55;42.50;;;;;;;5.62;89.37;100211.50;6255074;22;20008;-83
2022/03/04 04:40:35;;;;;;;72.43;39.42;;;;;;;5.63;88.78;100209.72;6280634;22;20073;-83
2022/03/04 04:43:00;;;;;;;69.53;37.38;;;;;;;5.76;87.39;100204.16;6280572;22;20435;-83
2022/03/04 04:45:26;;;;;;;70.88;36.17;;;;;;;5.74;87.68;100206.91;6281227;22;20006;-84
2022/03/04 04:47:51;;;;;;;74.75;36.33;;;;;;;5.79;87.49;100214.41;6254619;22;20034;-86
2022/03/04 04:50:17;;;;;;;62.33;35.25;;;;;;;5.81;87.12;100212.44;6254672;22;20096;-85
2022/03/04 04:52:42;;;;;;;66.53;35.60;;;;;;;5.84;86.12;100226.16;6280785;22;20443;-83
2022/03/04 04:55:09;;;;;;;62.50;34.88;;;;;;;5.89;86.12;100223.16;6281656;22;20300;-85
2022/03/04 04:57:36;;;;;;;71.40;36.55;;;;;;;5.79;87.16;100222.28;6279619;22;20014;-82
2022/03/04 05:00:03;;;;;;;64.90;34.08;;;;;;;5.83;86.69;100223.69;6279476;22;20084;-81
2022/03/04 05:02:29;;;;;;;66.57;33.72;;;;;;;6.08;84.17;100223.97;6280427;22;20494;-85
2022/03/04 05:04:54;;;;;;;63.65;32.60;;;;;;;5.90;85.50;100222.19;6280741;22;20093;-82
2022/03/04 05:07:25;;;;;;;64.60;32.47;;;;;;;5.95;86.03;100227.84;6273976;22;20020;-88
2022/03/04 05:09:50;;;;;;;62.60;34.33;;;;;;;6.02;85.55;100223.69;6284168;22;20008;-86
2022/03/04 05:12:16;;;;;;;61.85;33.80;;;;;;;5.96;85.92;100224.25;6283233;22;20012;-87
2022/03/04 05:14:43;;;;;;;67.95;33.42;;;;;;;5.86;86.71;100231.31;6285195;22;20011;-88
2022/03/04 05:17:09;;;;;;;61.42;33.80;;;;;;;5.83;86.73;100224.53;6287613;22;20014;-85
2022/03/04 05:19:34;;;;;;;63.97;33.10;;;;;;;5.84;86.81;100227.94;6288045;22;20038;-89
2022/03/04 05:22:02;;;;;;;59.42;33.38;;;;;;;5.77;87.18;100224.25;6257942;22;20087;-85
2022/03/04 05:24:28;;;;;;;63.55;33.92;;;;;;;5.70;87.90;100227.41;6294006;22;20016;-81
2022/03/04 05:26:54;;;;;;;64.05;34.65;;;;;;;5.76;86.38;100223.41;6234048;22;20015;-85
2022/03/04 05:29:20;;;;;;;61.35;33.53;;;;;;;5.68;87.46;100224.09;6295952;22;20003;-83
2022/03/04 05:31:46;;;;;;;58.83;32.00;;;;;;;5.77;87.10;100227.69;6268421;22;20012;-84
2022/03/04 05:34:12;;;;;;;65.63;32.85;;;;;;;5.93;85.29;100224.53;6284400;22;20018;-86
2022/03/04 05:36:41;;;;;;;61.58;31.98;;;;;;;5.87;85.93;100230.34;6254551;22;20011;-86
2022/03/04 05:39:07;;;;;;;61.17;33.22;;;;;;;5.87;85.12;100235.59;6283625;22;20008;-84
2022/03/04 05:41:33;;;;;;;61.22;32.60;;;;;;;5.91;84.74;100240.44;6262611;22;20015;-84
2022/03/04 05:43:59;;;;;;;60.58;32.63;;;;;;;6.08;83.23;100245.00;6291463;22;20086;-87
2022/03/04 05:46:25;;;;;;;62.10;31.45;;;;;;;6.00;83.43;100241.44;6292624;22;20096;-89
2022/03/04 05:48:50;;;;;;;70.88;34.13;;;;;;;6.04;82.34;100240.16;6291117;22;20350;-87
2022/03/04 05:51:17;;;;;;;59.88;32.90;;;;;;;5.95;83.07;100243.63;6270557;22;20011;-89
2022/03/04 05:53:46;;;;;;;63.03;33.80;;;;;;;5.92;83.91;100249.16;6268024;22;20018;-88
2022/03/04 05:56:17;;;;;;;62.83;34.53;;;;;;;6.02;83.40;100240.31;6264181;22;20018;-87
2022/03/04 05:58:48;;;;;;;71.07;34.30;;;;;;;6.00;83.29;100241.44;6291287;22;20018;-87
2022/03/04 06:01:14;;;;;;;69.30;34.88;;;;;;;5.99;83.49;100239.75;6286957;22;20012;-84
2022/03/04 06:03:40;;;;;;;67.30;34.28;;;;;;;5.99;83.19;100240.59;6282497;22;20007;-86
2022/03/04 06:06:11;;;;;;;72.88;34.78;;;;;;;5.98;83.17;100240.72;6291894;22;20027;-86
2022/03/04 06:08:37;;;;;;;65.32;34.35;;;;;;;6.06;82.73;100235.59;6266125;22;20016;-87
2022/03/04 06:11:04;;;;;;;63.55;34.28;;;;;;;6.02;82.76;100242.09;6286027;22;20022;-90
2022/03/04 06:13:35;;;;;;;68.35;33.47;;;;;;;6.08;82.88;100244.19;6235720;22;20363;-87
2022/03/04 06:16:02;;;;;;;64.40;32.75;;;;;;;6.16;82.21;100246.94;6257672;22;20016;-88
2022/03/04 06:18:27;;;;;;;64.05;32.75;;;;;;;6.24;81.83;100242.63;6231220;22;20007;-86
2022/03/04 06:20:56;;;;;;;61.00;31.95;;;;;;;6.27;81.78;100243.31;6262799;22;20035;-87
2022/03/04 06:23:22;;;;;;;69.45;33.30;;;;;;;6.34;80.68;100245.25;6261134;22;20016;-90
2022/03/04 06:25:48;;;;;;;61.67;33.10;;;;;;;6.38;80.39;100251.88;6286066;22;20011;-87
2022/03/04 06:28:13;;;;;;;61.17;31.95;;;;;;;6.52;79.67;100243.53;6284577;22;20069;-87
2022/03/04 06:30:39;;;;;;;60.83;33.17;;;;;;;6.58;78.83;100255.28;6286894;22;20012;-90
2022/03/04 06:35:51;;;;;;;60.63;31.98;;;;;;;7.02;78.04;100256.38;6252407;22;20054;-86
2022/03/04 06:38:17;;;;;;;61.28;33.70;;;;;;;6.99;77.55;100267.22;6227848;22;20340;-86
2022/03/04 06:40:44;;;;;;;62.90;32.75;;;;;;;7.24;77.10;100267.38;6228099;22;20065;-88
2022/03/04 06:43:09;;;;;;;67.10;34.20;;;;;;;7.33;76.03;100276.19;6281416;22;20000;-87
2022/03/04 06:45:36;;;;;;;60.13;31.08;;;;;;;7.69;73.94;100282.34;6256041;22;20016;-86
2022/03/04 06:48:02;;;;;;;57.60;31.98;;;;;;;8.14;70.86;100284.91;6285362;22;20016;-87
2022/03/04 06:50:28;;;;;;;61.33;31.38;;;;;;;8.44;69.33;100279.25;6288381;22;20022;-88
2022/03/04 06:52:55;;;;;;;61.90;35.20;;;;;;;8.38;69.60;100273.75;6283501;22;20012;-85
2022/03/04 06:55:21;;;;;;;70.80;34.67;;;;;;;8.39;69.61;100286.78;6252372;22;20015;-85
2022/03/04 06:57:50;;;;;;;72.20;35.63;;;;;;;8.48;69.63;100288.53;6279492;22;20007;-85
2022/03/04 07:00:15;;;;;;;65.28;32.83;;;;;;;9.01;68.27;100292.81;6280856;22;20034;-86
2022/03/04 07:02:41;;;;;;;65.70;33.22;;;;;;;9.60;65.22;100284.78;6278530;22;20008;-84
2022/03/04 07:05:08;;;;;;;68.57;33.95;;;;;;;9.53;64.56;100288.22;6256794;22;20021;-87
2022/03/04 07:07:34;;;;;;;61.88;32.65;;;;;;;9.00;66.44;100291.16;6284758;22;20007;-89
2022/03/04 07:10:00;;;;;;;61.60;32.72;;;;;;;9.60;64.00;100300.66;6259587;22;20008;-85
2022/03/04 07:12:29;;;;;;;64.90;33.30;;;;;;;10.06;61.52;100301.91;6255672;22;20018;-85
2022/03/04 07:14:56;;;;;;;72.78;33.13;;;;;;;10.11;60.80;100298.78;6260768;22;20012;-84
2022/03/04 07:17:31;;;;;;;69.30;35.17;;;;;;;10.06;60.70;100301.91;6282693;22;20067;-87
2022/03/04 07:19:57;;;;;;;44.80;25.93;;;;;;;9.57;63.26;100300.97;6254455;22;20110;-85
2022/03/04 07:22:25;;;;;;;63.25;34.38;;;;;;;10.00;61.49;100302.56;6281709;22;20063;-86
2022/03/04 07:24:50;;;;;;;65.53;35.63;;;;;;;10.44;60.40;100305.72;6253625;22;20038;-84
2022/03/04 07:27:16;;;;;;;55.97;33.80;;;;;;;10.73;57.77;100306.06;6284752;22;20424;-85
2022/03/04 07:29:42;;;;;;;57.95;32.20;;;;;;;10.70;58.06;100297.59;6259602;22;20011;-87
2022/03/04 07:32:07;;;;;;;66.97;32.80;;;;;;;10.54;58.49;100311.69;6259843;22;20012;-85
2022/03/04 07:34:34;;;;;;;57.83;35.17;;;;;;;10.47;58.87;100310.72;6258063;22;20023;-86
2022/03/04 07:37:00;;;;;;;63.92;37.03;;;;;;;10.34;60.45;100310.41;6259483;22;20038;-87
2022/03/04 07:39:25;;;;;;;68.05;37.60;;;;;;;10.16;60.68;100307.06;6285037;22;20004;-86
2022/03/04 07:41:51;;;;;;;71.85;37.17;;;;;;;10.19;60.50;100306.72;6284955;22;20008;-87
2022/03/04 07:44:26;;;;;;;74.63;37.55;;;;;;;9.84;63.59;100308.63;6288055;22;20008;-86
2022/03/04 07:46:52;;;;;;;74.07;38.33;;;;;;;10.71;59.52;100312.50;6285428;22;20061;-86
2022/03/04 07:49:18;;;;;;;73.55;39.40;;;;;;;10.88;58.73;100322.06;6258698;22;20343;-87
2022/03/04 07:51:43;;;;;;;63.65;38.38;;;;;;;10.66;58.59;100326.28;6254434;22;20075;-87
2022/03/04 07:54:09;;;;;;;75.70;38.50;;;;;;;10.56;60.29;100325.63;6255324;22;20015;-86
2022/03/04 07:56:35;;;;;;;79.68;38.78;;;;;;;10.37;62.10;100325.97;6282391;22;20031;-86
2022/03/04 07:59:01;;;;;;;68.95;40.03;;;;;;;10.89;60.08;100321.94;6280965;22;20004;-84
2022/03/04 08:01:27;;;;;;;75.95;39.88;;;;;;;10.92;60.30;100330.53;6281991;22;20086;-87
2022/03/04 08:03:55;;;;;;;71.38;40.33;;;;;;;11.52;57.81;100329.00;6260241;22;20035;-86
2022/03/04 08:06:20;;;;;;;71.43;40.13;;;;;;;11.93;56.15;100322.50;6246792;22;20020;-87
2022/03/04 08:08:46;;;;;;;67.55;39.53;;;;;;;11.76;56.55;100330.75;6250422;22;20423;-87
2022/03/04 08:11:15;;;;;;;76.30;39.83;;;;;;;11.93;57.91;100333.13;6279124;22;20309;-85
2022/03/04 08:13:41;;;;;;;72.55;43.10;;;;;;;11.37;59.52;100330.72;6279439;22;20094;-85
2022/03/04 08:16:06;;;;;;;73.28;42.30;;;;;;;11.60;59.79;100344.09;6279725;22;20104;-83
2022/03/04 08:18:32;;;;;;;71.78;41.53;;;;;;;11.10;60.48;100333.81;6275480;22;20008;-86
2022/03/04 08:20:59;;;;;;;69.20;41.90;;;;;;;11.51;58.70;100337.97;6278821;22;20032;-84
2022/03/04 08:23:25;;;;;;;69.85;41.20;;;;;;;11.58;58.10;100338.94;6278405;22;20342;-85
2022/03/04 08:25:51;;;;;;;73.72;41.78;;;;;;;10.85;60.61;100341.81;6278710;22;20034;-86
2022/03/04 08:28:17;;;;;;;66.35;37.45;;;;;;;11.56;58.87;100348.06;6254027;22;20024;-84
2022/03/04 08:30:43;;;;;;;69.70;38.45;;;;;;;11.45;59.87;100340.47;6280652;22;20034;-86
2022/03/04 08:33:09;;;;;;;67.05;39.55;;;;;;;11.78;58.16;100344.66;6278946;22;20035;-85
2022/03/04 08:35:35;;;;;;;69.38;40.45;;;;;;;11.86;57.81;100345.44;6279560;22;20319;-84
2022/03/04 08:38:02;;;;;;;68.32;39.10;;;;;;;12.57;55.52;100352.25;6252952;22;20075;-85
2022/03/04 08:40:28;;;;;;;78.53;40.92;;;;;;;12.80;55.02;100345.06;6280047;22;20012;-86
2022/03/04 08:42:54;;;;;;;68.25;41.50;;;;;;;12.50;56.06;100353.97;6280408;22;20015;-85
2022/03/04 08:45:20;;;;;;;69.53;41.03;;;;;;;13.29;54.03;100357.94;6282297;22;20046;-83
2022/03/04 08:47:46;;;;;;;68.88;38.35;;;;;;;13.51;52.93;100351.66;6280809;22;20346;-86
2022/03/04 08:50:14;;;;;;;63.58;36.38;;;;;;;13.39;51.19;100367.25;6251309;22;20089;-85
2022/03/04 08:52:40;;;;;;;72.05;38.75;;;;;;;13.40;52.27;100366.25;6281447;22;20014;-84
2022/03/04 08:55:13;;;;;;;68.55;38.85;;;;;;;12.88;54.10;100371.63;6289777;22;20008;-84
2022/03/04 08:57:46;;;;;;;64.38;39.10;;;;;;;12.26;57.05;100370.13;6283051;22;20374;-84
2022/03/04 09:00:14;;;;;;;65.40;40.05;;;;;;;12.31;56.87;100367.75;6284432;22;20016;-84
2022/03/04 09:02:39;;;;;;;65.47;37.55;;;;;;;12.37;57.23;100359.06;6284802;22;20420;-85
2022/03/04 09:05:06;;;;;;;76.30;38.85;;;;;;;11.99;58.67;100358.19;6262386;22;20030;-85
2022/03/04 09:07:32;;;;;;;74.78;41.75;;;;;;;12.70;56.87;100363.13;6263799;22;20011;-86
2022/03/04 09:09:58;;;;;;;68.55;41.45;;;;;;;12.56;57.36;100366.56;6264683;22;20039;-85
2022/03/04 09:12:24;;;;;;;67.35;38.17;;;;;;;13.06;55.02;100357.16;6239530;22;20008;-85
2022/03/04 09:14:50;;;;;;;67.57;38.55;;;;;;;13.14;54.08;100365.06;6270301;22;20019;-83
2022/03/04 09:17:16;;;;;;;63.72;37.55;;;;;;;12.62;56.37;100355.22;6296953;22;20012;-85
2022/03/04 09:19:41;;;;;;;66.95;38.35;;;;;;;13.07;55.23;100366.75;6262554;22;20000;-86
2022/03/04 09:22:07;;;;;;;78.07;38.40;;;;;;;13.13;53.90;100358.06;6289192;22;20063;-86
2022/03/04 09:24:32;;;;;;;66.25;36.10;;;;;;;13.55;51.80;100363.59;6258905;22;20007;-87
2022/03/04 09:26:58;;;;;;;65.95;38.50;;;;;;;13.26;53.89;100360.94;6298280;22;19996;-86
2022/03/04 09:29:23;;;;;;;58.40;37.63;;;;;;;12.61;55.08;100358.06;6302778;22;19998;-85
2022/03/04 09:31:49;;;;;;;69.65;37.53;;;;;;;12.94;55.13;100364.72;6299820;22;20019;-85
2022/03/04 09:34:14;;;;;;;58.58;33.75;;;;;;;13.62;49.67;100367.16;6303546;22;20016;-88
2022/03/04 09:36:40;;;;;;;57.75;34.85;;;;;;;14.10;48.72;100372.84;6296232;22;20008;-86
2022/03/04 09:39:06;;;;;;;56.58;34.92;;;;;;;14.33;47.49;100370.84;6283634;22;20036;-85
2022/03/04 09:41:32;;;;;;;59.20;35.28;;;;;;;13.66;48.29;100371.09;6254387;22;20007;-85
2022/03/04 09:43:57;;;;;;;61.90;36.75;;;;;;;13.50;49.40;100371.31;6283657;22;20011;-87
2022/03/04 09:46:24;;;;;;;67.15;37.25;;;;;;;13.37;49.59;100363.97;6255953;22;20012;-85
2022/03/04 09:48:50;;;;;;;65.75;36.20;;;;;;;13.58;49.20;100368.56;6251441;22;20379;-87
2022/03/04 09:51:16;;;;;;;65.18;37.25;;;;;;;12.84;51.99;100358.84;6280723;22;20013;-87
2022/03/04 09:53:43;;;;;;;70.45;35.47;;;;;;;12.76;52.00;100362.38;6252289;22;20019;-84
2022/03/04 09:56:09;;;;;;;68.82;38.20;;;;;;;12.24;53.04;100356.16;6278520;22;20012;-86
2022/03/04 09:58:37;;;;;;;63.95;37.67;;;;;;;12.07;53.43;100360.75;6279461;22;20070;-86
2022/03/04 10:01:12;;;;;;;64.40;36.92;;;;;;;11.98;54.86;100356.50;6277598;22;20007;-86
2022/03/04 10:03:43;;;;;;;70.47;38.42;;;;;;;12.48;53.84;100348.03;6278595;22;20090;-85
2022/03/04 10:06:09;;;;;;;64.55;38.30;;;;;;;13.28;51.72;100348.28;6226009;22;20008;-85
2022/03/04 10:08:54;;;;;;;72.80;37.78;;;;;;;13.94;49.79;100345.44;6279848;22;20014;-87
2022/03/04 10:11:26;;;;;;;61.90;36.97;;;;;;;13.97;48.33;100353.06;6279290;22;20003;-85
2022/03/04 10:13:53;;;;;;;;;;;;;;;14.18;46.11;100346.09;6256782;22;20026;-87
2022/03/04 10:16:33;;;;;;;59.00;35.92;;;;;;;14.92;44.42;100342.03;6293206;22;19915;-89
2022/03/04 10:19:23;;;;;;;67.18;33.47;;;;;;;15.54;43.27;100347.41;6295131;22;20009;-88
2022/03/04 10:22:00;;;;;;;61.08;34.25;;;;;;;15.74;40.85;100347.47;6291545;22;20458;-89
2022/03/04 10:24:37;;;;;;;64.47;33.92;;;;;;;15.38;41.05;100340.50;6269660;22;20008;-92
2022/03/04 10:27:12;;;;;;;59.50;34.58;;;;;;;14.90;41.87;100360.09;6295678;22;20030;-91
2022/03/04 10:29:51;;;;;;;67.63;36.40;;;;;;;14.96;41.72;100354.81;6295285;22;20008;-90
2022/03/04 10:32:26;;;;;;;66.70;36.20;;;;;;;14.91;41.82;100349.22;6217154;22;20015;-87
2022/03/04 10:35:37;;;;;;;65.68;35.92;;;;;;;15.26;41.80;100355.44;6302802;22;20003;-86
2022/03/04 10:57:53;;;;;;;65.07;37.60;;;;;;;15.51;38.38;100340.59;6302741;22;20004;-87
2022/03/04 12:46:34;;;;;;;39.33;24.80;;;;;;;12.40;41.85;100252.41;6251477;22;20020;-91
2022/03/04 12:49:06;;;;;;;56.97;35.65;;;;;;;12.51;43.12;100228.03;6257386;22;20294;-90
2022/03/04 12:51:45;;;;;;;60.35;36.88;;;;;;;12.28;44.12;100216.66;6262627;22;20000;-85
2022/03/04 12:54:16;;;;;;;57.95;35.30;;;;;;;12.30;44.81;100222.59;6251665;22;20097;-83
2022/03/04 12:56:50;;;;;;;61.63;37.17;;;;;;;12.43;44.81;100218.31;6253353;22;20005;-85
2022/03/04 12:59:16;;;;;;;54.53;33.83;;;;;;;12.47;44.33;100223.25;6250153;22;20070;-82
2022/03/04 13:01:43;;;;;;;55.72;34.55;;;;;;;12.75;44.62;100222.47;6245921;22;20344;-84
2022/03/04 13:04:09;;;;;;;50.97;31.77;;;;;;;12.56;45.03;100212.38;6248363;22;20432;-85
2022/03/04 13:06:37;;;;;;;51.50;31.75;;;;;;;12.53;44.50;100218.03;6245506;22;20015;-83
2022/03/04 13:09:07;;;;;;;51.17;32.17;;;;;;;12.27;44.82;100212.31;6245701;23;20456;-82
2022/03/04 13:11:44;;;;;;;51.08;31.98;;;;;;;12.31;44.23;100209.16;6247584;22;20505;-83
2022/03/04 13:14:14;;;;;;;54.28;31.98;;;;;;;12.37;44.62;100202.28;6246589;23;20426;-81
2022/03/04 13:16:56;;;;;;;51.15;30.65;;;;;;;12.33;44.45;100208.94;6246974;22;20012;-83
2022/03/04 13:19:26;;;;;;;49.05;30.65;;;;;;;12.32;43.04;100204.66;6246137;22;20131;-80
2022/03/04 13:22:02;;;;;;;50.47;30.77;;;;;;;12.04;43.11;100203.56;6247413;22;20008;-79
2022/03/04 13:24:40;;;;;;;52.17;31.33;;;;;;;12.22;44.07;100204.91;6259961;22;20011;-82